Time;durP1;ratioP1;P1;durP2;ratioP2;P2;SDS_P1;SDS_P2;PMS_P1;PMS_P2;Temp;Humidity;BMP_temperature;BMP_pressure;BME280_temperature;BME280_humidity;BME280_pressure;Samples;Min_cycle;Max_cycle;Signal;HPM_P1;HPM_P2
2021/03/25 00:02:06;;;;;;;;;;;;;;;;;;5034616;28;19925;-65
2021/03/25 00:04:32;;;;;;;;;;;;;;;;;;5036929;28;19925;-63
2021/03/25 00:06:59;;;;;;;;;;;;;;;;;;5043706;28;20004;-64
2021/03/25 00:09:25;;;;;;;;;;;;;;;;;;5039302;28;19926;-64
2021/03/25 00:11:52;;;;;;;;;;;;;;;;;;5040856;28;19993;-65
2021/03/25 00:14:18;;;;;;;;;;;;;;;;;;5039139;28;20011;-65
2021/03/25 00:16:45;;;;;;;;;;;;;;;;;;5038169;28;19968;-63
2021/03/25 00:19:11;;;;;;;;;;;;;;;;;;5028440;28;19994;-63
2021/03/25 00:21:38;;;;;;;;;;;;;;;;;;5030539;28;19992;-64
2021/03/25 00:24:04;;;;;;;;;;;;;;;;;;5032114;28;20366;-65
2021/03/25 00:26:31;;;;;;;;;;;;;;;;;;5031706;28;19925;-63
2021/03/25 00:28:57;;;;;;;;;;;;;;;;;;5031540;28;19925;-61
2021/03/25 00:31:24;;;;;;;;;;;;;;;;;;5032025;28;20241;-63
2021/03/25 00:33:50;;;;;;;;;;;;;;;;;;5029811;28;20019;-62
2021/03/25 00:36:17;;;;;;;;;;;;;;;;;;5031894;28;19929;-62
2021/03/25 00:38:43;;;;;;;;;;;;;;;;;;5028180;28;19925;-63
2021/03/25 00:41:10;;;;;;;;;;;;;;;;;;5017872;28;20001;-62
2021/03/25 00:43:36;;;;;;;;;;;;;;;;;;5031688;28;19925;-64
2021/03/25 00:46:02;;;;;;;;;;;;;;;;;;5031047;28;19926;-65
2021/03/25 00:48:29;;;;;;;;;;;;;;;;;;5031712;28;19929;-65
2021/03/25 00:50:55;;;;;;;;;;;;;;;;;;5032026;28;19929;-65
2021/03/25 00:53:23;;;;;;;;;;;;;;;;;;5031599;28;20433;-62
2021/03/25 00:55:49;;;;;;;;;;;;;;;;;;5030579;28;19929;-64
2021/03/25 00:58:16;;;;;;;;;;;;;;;;;;5031338;28;19954;-62
2021/03/25 01:00:42;;;;;;;;;;;;;;;;;;5030027;28;19933;-63
2021/03/25 01:03:09;;;;;;;;;;;;;;;;;;5031132;28;19968;-66
2021/03/25 01:05:35;;;;;;;;;;;;;;;;;;5031518;28;20289;-62
2021/03/25 01:08:02;;;;;;;;;;;;;;;;;;5029539;28;20411;-62
2021/03/25 01:10:28;;;;;;;;;;;;;;;;;;5028691;28;19925;-64
2021/03/25 01:12:55;;;;;;;;;;;;;;;;;;5030771;28;19926;-64
2021/03/25 01:15:21;;;;;;;;;;;;;;;;;;5031178;28;20521;-60
2021/03/25 01:17:48;;;;;;;;;;;;;;;;;;5030787;28;19925;-62
2021/03/25 01:20:14;;;;;;;;;;;;;;;;;;5030191;28;19925;-64
2021/03/25 01:22:41;;;;;;;;;;;;;;;;;;5030795;28;19944;-63
2021/03/25 01:25:07;;;;;;;;;;;;;;;;;;5030148;28;19932;-63
2021/03/25 01:27:34;;;;;;;;;;;;;;;;;;5028776;28;19932;-64
2021/03/25 01:30:01;;;;;;;;;;;;;;;;;;5024474;28;19929;-62
2021/03/25 01:32:28;;;;;;;;;;;;;;;;;;5024838;28;20325;-63
2021/03/25 01:34:54;;;;;;;;;;;;;;;;;;5028641;28;19925;-64
2021/03/25 01:37:21;;;;;;;;;;;;;;;;;;5029151;28;20027;-63
2021/03/25 01:39:47;;;;;;;;;;;;;;;;;;5029147;28;20024;-62
2021/03/25 01:42:14;;;;;;;;;;;;;;;;;;5031562;28;19993;-63
2021/03/25 01:44:43;;;;;;;;;;;;;;;;;;5022154;28;19948;-63
2021/03/25 01:47:10;;;;;;;;;;;;;;;;;;5031036;28;20423;-63
2021/03/25 01:49:36;;;;;;;;;;;;;;;;;;5030868;28;19925;-64
2021/03/25 01:52:03;;;;;;;;;;;;;;;;;;5031623;28;19948;-64
2021/03/25 01:54:29;;;;;;;;;;;;;;;;;;5030620;28;19964;-62
2021/03/25 01:56:56;;;;;;;;;;;;;;;;;;5030871;28;19931;-65
2021/03/25 01:59:22;;;;;;;;;;;;;;;;;;5028266;28;19976;-65
2021/03/25 02:01:49;;;;;;;;;;;;;;;;;;5029884;28;19931;-64
2021/03/25 02:04:15;;;;;;;;;;;;;;;;;;5029614;28;19933;-64
2021/03/25 02:06:42;;;;;;;;;;;;;;;;;;5030834;28;20064;-64
2021/03/25 02:09:08;;;;;;;;;;;;;;;;;;5021947;28;20028;-63
2021/03/25 02:11:35;;;;;;;;;;;;;;;;;;5030375;28;19925;-65
2021/03/25 02:14:01;;;;;;;;;;;;;;;;;;5030221;28;19929;-65
2021/03/25 02:16:28;;;;;;;;;;;;;;;;;;5030026;28;20357;-65
2021/03/25 02:18:54;;;;;;;;;;;;;;;;;;5032928;28;20011;-65
2021/03/25 02:21:21;;;;;;;;;;;;;;;;;;5034741;28;19929;-63
2021/03/25 02:23:47;;;;;;;;;;;;;;;;;;5033732;28;20441;-64
2021/03/25 02:26:14;;;;;;;;;;;;;;;;;;5034560;28;19925;-63
2021/03/25 02:28:40;;;;;;;;;;;;;;;;;;5033891;28;20771;-63
2021/03/25 02:31:07;;;;;;;;;;;;;;;;;;5034251;28;20344;-65
2021/03/25 02:33:33;;;;;;;;;;;;;;;;;;5033602;28;19931;-65
2021/03/25 02:36:00;;;;;;;;;;;;;;;;;;5033593;28;20024;-64
2021/03/25 02:38:26;;;;;;;;;;;;;;;;;;5034010;28;19925;-64
2021/03/25 02:40:53;;;;;;;;;;;;;;;;;;5033695;28;19925;-63
2021/03/25 02:43:19;;;;;;;;;;;;;;;;;;5033199;28;19935;-64
2021/03/25 02:45:46;;;;;;;;;;;;;;;;;;5033063;28;20015;-63
2021/03/25 02:48:12;;;;;;;;;;;;;;;;;;5032751;28;19925;-65
2021/03/25 02:50:39;;;;;;;;;;;;;;;;;;5030814;28;19944;-65
2021/03/25 02:53:05;;;;;;;;;;;;;;;;;;5032451;28;19951;-64
2021/03/25 02:55:32;;;;;;;;;;;;;;;;;;5031676;28;20013;-64
2021/03/25 02:57:58;;;;;;;;;;;;;;;;;;5032837;28;20040;-64
2021/03/25 03:00:25;;;;;;;;;;;;;;;;;;5033280;28;19929;-64
2021/03/25 03:02:51;;;;;;;;;;;;;;;;;;5033538;28;19972;-64
2021/03/25 03:05:17;;;;;;;;;;;;;;;;;;5026369;28;19995;-64
2021/03/25 03:07:44;;;;;;;;;;;;;;;;;;5032778;28;19929;-64
2021/03/25 03:10:10;;;;;;;;;;;;;;;;;;5031870;28;19925;-65
2021/03/25 03:12:39;;;;;;;;;;;;;;;;;;5032113;28;19952;-64
2021/03/25 03:15:06;;;;;;;;;;;;;;;;;;5031970;28;19925;-65
2021/03/25 03:17:32;;;;;;;;;;;;;;;;;;5032450;28;20300;-64
2021/03/25 03:19:59;;;;;;;;;;;;;;;;;;5027956;28;20023;-67
2021/03/25 03:22:25;;;;;;;;;;;;;;;;;;5029545;28;19925;-65
2021/03/25 03:24:52;;;;;;;;;;;;;;;;;;5031568;28;19932;-63
2021/03/25 03:27:18;;;;;;;;;;;;;;;;;;5032709;28;19972;-64
2021/03/25 03:29:45;;;;;;;;;;;;;;;;;;5031866;28;20026;-65
2021/03/25 03:32:11;;;;;;;;;;;;;;;;;;5024476;28;19929;-65
2021/03/25 03:34:38;;;;;;;;;;;;;;;;;;5030208;28;19925;-64
2021/03/25 03:37:05;;;;;;;;;;;;;;;;;;5036686;28;19929;-64
2021/03/25 03:39:31;;;;;;;;;;;;;;;;;;5031974;28;19940;-65
2021/03/25 03:41:58;;;;;;;;;;;;;;;;;;5031945;28;19933;-63
2021/03/25 03:44:24;;;;;;;;;;;;;;;;;;5031642;28;19931;-64
2021/03/25 03:46:51;;;;;;;;;;;;;;;;;;5031834;28;19935;-66
2021/03/25 03:49:17;;;;;;;;;;;;;;;;;;5027229;28;19925;-65
2021/03/25 03:51:44;;;;;;;;;;;;;;;;;;5034479;28;19925;-63
2021/03/25 03:54:10;;;;;;;;;;;;;;;;;;5032362;28;19925;-63
2021/03/25 03:56:37;;;;;;;;;;;;;;;;;;5032380;28;20020;-64
2021/03/25 03:59:03;;;;;;;;;;;;;;;;;;5028477;28;19925;-65
2021/03/25 04:01:30;;;;;;;;;;;;;;;;;;5030857;28;19925;-64
2021/03/25 04:03:56;;;;;;;;;;;;;;;;;;5039882;28;19935;-63
2021/03/25 04:06:23;;;;;;;;;;;;;;;;;;5042182;28;20001;-65
2021/03/25 04:08:49;;;;;;;;;;;;;;;;;;5043139;28;19957;-65
2021/03/25 04:11:16;;;;;;;;;;;;;;;;;;5042144;28;19925;-64
2021/03/25 04:13:42;;;;;;;;;;;;;;;;;;5032539;28;19926;-62
2021/03/25 04:16:09;;;;;;;;;;;;;;;;;;5036816;28;19925;-65
2021/03/25 04:18:35;;;;;;;;;;;;;;;;;;5038953;28;20318;-63
2021/03/25 04:21:02;;;;;;;;;;;;;;;;;;5036194;28;19971;-63
2021/03/25 04:23:28;;;;;;;;;;;;;;;;;;5032346;28;20014;-64
2021/03/25 04:25:55;;;;;;;;;;;;;;;;;;5030395;28;20012;-64
2021/03/25 04:28:21;;;;;;;;;;;;;;;;;;5031508;28;19929;-64
2021/03/25 04:30:48;;;;;;;;;;;;;;;;;;5031734;28;20336;-64
2021/03/25 04:33:14;;;;;;;;;;;;;;;;;;5028373;28;19976;-64
2021/03/25 04:35:41;;;;;;;;;;;;;;;;;;5028615;28;19929;-63
2021/03/25 04:38:07;;;;;;;;;;;;;;;;;;5032345;28;19925;-62
2021/03/25 04:40:34;;;;;;;;;;;;;;;;;;5030912;28;20015;-64
2021/03/25 04:43:00;;;;;;;;;;;;;;;;;;5032684;28;19925;-63
2021/03/25 04:45:27;;;;;;;;;;;;;;;;;;5030120;28;20012;-64
2021/03/25 04:47:53;;;;;;;;;;;;;;;;;;5030984;28;20371;-62
2021/03/25 04:50:20;;;;;;;;;;;;;;;;;;5032027;28;20051;-63
2021/03/25 04:52:46;;;;;;;;;;;;;;;;;;5033211;28;20000;-65
2021/03/25 04:55:13;;;;;;;;;;;;;;;;;;5029733;28;19925;-62
2021/03/25 04:57:39;;;;;;;;;;;;;;;;;;5027382;28;19932;-64
2021/03/25 05:00:06;;;;;;;;;;;;;;;;;;5031531;28;19993;-64
2021/03/25 05:02:32;;;;;;;;;;;;;;;;;;5032237;28;20343;-62
2021/03/25 05:04:59;;;;;;;;;;;;;;;;;;5030678;28;20016;-64
2021/03/25 05:07:25;;;;;;;;;;;;;;;;;;5031027;28;19925;-65
2021/03/25 05:09:52;;;;;;;;;;;;;;;;;;5032669;28;20015;-65
2021/03/25 05:12:18;;;;;;;;;;;;;;;;;;5031592;28;19932;-65
2021/03/25 05:14:45;;;;;;;;;;;;;;;;;;5027565;28;19929;-63
2021/03/25 05:17:11;;;;;;;;;;;;;;;;;;5031636;28;20028;-64
2021/03/25 05:19:38;;;;;;;;;;;;;;;;;;5031675;28;20405;-64
2021/03/25 05:22:04;;;;;;;;;;;;;;;;;;5029532;28;19925;-64
2021/03/25 05:24:31;;;;;;;;;;;;;;;;;;5030849;28;19933;-64
2021/03/25 05:26:57;;;;;;;;;;;;;;;;;;5031195;28;19925;-64
2021/03/25 05:29:25;;;;;;;;;;;;;;;;;;5032013;28;19935;-64
2021/03/25 05:31:52;;;;;;;;;;;;;;;;;;5031776;28;19925;-64
2021/03/25 05:34:18;;;;;;;;;;;;;;;;;;5023933;28;20309;-63
2021/03/25 05:36:45;;;;;;;;;;;;;;;;;;5030920;28;20375;-65
2021/03/25 05:39:11;;;;;;;;;;;;;;;;;;5030723;28;19929;-63
2021/03/25 05:41:38;;;;;;;;;;;;;;;;;;5029323;28;20385;-65
2021/03/25 05:44:04;;;;;;;;;;;;;;;;;;5031171;28;19931;-65
2021/03/25 05:46:31;;;;;;;;;;;;;;;;;;5031055;28;19991;-65
2021/03/25 05:48:57;;;;;;;;;;;;;;;;;;5030990;28;19925;-65
2021/03/25 05:51:24;;;;;;;;;;;;;;;;;;5028890;28;19929;-63
2021/03/25 05:53:50;;;;;;;;;;;;;;;;;;5031880;28;19927;-63
2021/03/25 05:56:19;;;;;;;;;;;;;;;;;;5029215;28;20184;-66
2021/03/25 05:58:45;;;;;;;;;;;;;;;;;;5034393;28;20004;-64
2021/03/25 06:01:12;;;;;;;;;;;;;;;;;;5033734;28;20016;-65
2021/03/25 06:03:38;;;;;;;;;;;;;;;;;;5032834;28;19998;-66
2021/03/25 06:06:05;;;;;;;;;;;;;;;;;;5033183;28;19932;-65
2021/03/25 06:08:31;;;;;;;;;;;;;;;;;;5030804;28;20013;-64
2021/03/25 06:10:57;;;;;;;;;;;;;;;;;;5033641;28;19933;-65
2021/03/25 06:13:24;;;;;;;;;;;;;;;;;;5032382;28;19925;-63
2021/03/25 06:15:50;;;;;;;;;;;;;;;;;;5032327;28;20016;-65
2021/03/25 06:18:17;;;;;;;;;;;;;;;;;;5033739;28;20289;-65
2021/03/25 06:20:43;;;;;;;;;;;;;;;;;;5032334;28;19925;-65
2021/03/25 06:23:10;;;;;;;;;;;;;;;;;;5033576;28;20290;-66
2021/03/25 06:25:37;;;;;;;;;;;;;;;;;;5029951;28;20401;-65
2021/03/25 06:28:03;;;;;;;;;;;;;;;;;;5032092;28;19925;-66
2021/03/25 06:30:30;;;;;;;;;;;;;;;;;;5034349;28;20293;-64
2021/03/25 06:32:56;;;;;;;;;;;;;;;;;;5033911;28;20091;-65
2021/03/25 06:35:23;;;;;;;;;;;;;;;;;;5033360;28;20386;-64
2021/03/25 06:37:49;;;;;;;;;;;;;;;;;;5033450;28;20098;-64
2021/03/25 06:40:16;;;;;;;;;;;;;;;;;;5030769;28;20016;-65
2021/03/25 06:42:42;;;;;;;;;;;;;;;;;;5030848;28;19925;-65
2021/03/25 06:45:09;;;;;;;;;;;;;;;;;;5034677;28;20016;-65
2021/03/25 06:47:35;;;;;;;;;;;;;;;;;;5035583;28;20281;-66
2021/03/25 06:50:02;;;;;;;;;;;;;;;;;;5034582;28;19931;-66
2021/03/25 06:52:28;;;;;;;;;;;;;;;;;;5034579;28;19980;-64
2021/03/25 06:54:55;;;;;;;;;;;;;;;;;;5034199;28;19971;-66
2021/03/25 06:57:22;;;;;;;;;;;;;;;;;;5034782;28;19925;-64
2021/03/25 06:59:48;;;;;;;;;;;;;;;;;;5034300;28;20269;-65
2021/03/25 07:02:15;;;;;;;;;;;;;;;;;;5025838;28;19976;-66
2021/03/25 07:04:41;;;;;;;;;;;;;;;;;;5048708;28;19929;-64
2021/03/25 07:07:08;;;;;;;;;;;;;;;;;;5034241;28;19987;-65
2021/03/25 07:09:34;;;;;;;;;;;;;;;;;;5034101;28;19932;-65
2021/03/25 07:12:03;;;;;;;;;;;;;;;;;;5034254;28;20315;-65
2021/03/25 07:14:29;;;;;;;;;;;;;;;;;;5033926;28;20393;-64
2021/03/25 07:16:56;;;;;;;;;;;;;;;;;;5034206;28;20462;-65
2021/03/25 07:19:22;;;;;;;;;;;;;;;;;;5034413;28;19925;-65
2021/03/25 07:21:49;;;;;;;;;;;;;;;;;;5031970;28;20423;-65
2021/03/25 07:24:15;;;;;;;;;;;;;;;;;;5024257;28;19928;-67
2021/03/25 07:26:42;;;;;;;;;;;;;;;;;;5032938;28;19979;-66
2021/03/25 07:29:08;;;;;;;;;;;;;;;;;;5032293;28;19925;-66
2021/03/25 07:31:35;;;;;;;;;;;;;;;;;;5032729;28;20023;-66
2021/03/25 07:34:01;;;;;;;;;;;;;;;;;;5033132;28;19929;-66
2021/03/25 07:36:28;;;;;;;;;;;;;;;;;;5032342;28;19970;-67
2021/03/25 07:38:54;;;;;;;;;;;;;;;;;;5033023;28;19925;-66
2021/03/25 07:41:21;;;;;;;;;;;;;;;;;;5033458;28;19987;-67
2021/03/25 07:43:47;;;;;;;;;;;;;;;;;;5032850;28;19970;-66
2021/03/25 07:46:13;;;;;;;;;;;;;;;;;;5031935;28;19933;-67
2021/03/25 07:48:40;;;;;;;;;;;;;;;;;;5025284;28;20052;-66
2021/03/25 07:51:06;;;;;;;;;;;;;;;;;;5033726;28;20312;-66
2021/03/25 07:53:33;;;;;;;;;;;;;;;;;;5032332;28;19925;-65
2021/03/25 07:55:59;;;;;;;;;;;;;;;;;;5032144;28;20031;-65
2021/03/25 07:58:26;;;;;;;;;;;;;;;;;;5027293;28;19924;-66
2021/03/25 08:00:52;;;;;;;;;;;;;;;;;;5032789;28;19973;-65
2021/03/25 08:03:19;;;;;;;;;;;;;;;;;;5038285;28;19932;-69
2021/03/25 08:05:45;;;;;;;;;;;;;;;;;;5027513;28;20393;-66
2021/03/25 08:08:12;;;;;;;;;;;;;;;;;;5024496;28;19939;-64
2021/03/25 08:10:39;;;;;;;;;;;;;;;;;;5036007;28;20006;-66
2021/03/25 08:13:06;;;;;;;;;;;;;;;;;;5040505;28;21335;-66
2021/03/25 08:15:33;;;;;;;;;;;;;;;;;;5030255;28;20345;-65
2021/03/25 08:17:59;;;;;;;;;;;;;;;;;;5028997;28;19925;-68
2021/03/25 08:20:26;;;;;;;;;;;;;;;;;;5035349;28;20457;-69
2021/03/25 08:22:52;;;;;;;;;;;;;;;;;;5035576;28;19975;-66
2021/03/25 08:25:19;;;;;;;;;;;;;;;;;;5041889;28;19925;-66
2021/03/25 08:27:45;;;;;;;;;;;;;;;;;;5040884;28;20027;-67
2021/03/25 08:30:12;;;;;;;;;;;;;;;;;;5030929;28;20015;-66
2021/03/25 08:32:38;;;;;;;;;;;;;;;;;;5023989;28;19978;-65
2021/03/25 08:35:05;;;;;;;;;;;;;;;;;;5038924;28;19967;-64
2021/03/25 08:37:31;;;;;;;;;;;;;;;;;;5040126;28;19933;-67
2021/03/25 08:39:58;;;;;;;;;;;;;;;;;;5036128;28;19931;-67
2021/03/25 08:42:24;;;;;;;;;;;;;;;;;;5036161;28;19973;-66
2021/03/25 08:44:51;;;;;;;;;;;;;;;;;;5031858;28;19929;-64
2021/03/25 08:47:17;;;;;;;;;;;;;;;;;;5030830;28;20320;-66
2021/03/25 08:49:44;;;;;;;;;;;;;;;;;;5026708;28;19939;-67
2021/03/25 08:52:10;;;;;;;;;;;;;;;;;;5035542;28;20491;-66
2021/03/25 08:54:37;;;;;;;;;;;;;;;;;;5039020;28;20286;-66
2021/03/25 08:57:03;;;;;;;;;;;;;;;;;;5042444;28;19932;-66
2021/03/25 08:59:30;;;;;;;;;;;;;;;;;;5033190;28;19925;-64
2021/03/25 09:01:56;;;;;;;;;;;;;;;;;;5037789;28;19925;-65
2021/03/25 09:04:23;;;;;;;;;;;;;;;;;;5034785;28;20272;-64
2021/03/25 09:06:50;;;;;;;;;;;;;;;;;;5036503;28;19925;-67
2021/03/25 09:09:16;;;;;;;;;;;;;;;;;;5032988;28;19929;-66
2021/03/25 09:11:43;;;;;;;;;;;;;;;;;;5029911;28;19986;-65
2021/03/25 09:14:09;;;;;;;;;;;;;;;;;;5035879;28;19925;-65
2021/03/25 09:16:36;;;;;;;;;;;;;;;;;;5033082;28;19969;-66
2021/03/25 09:19:02;;;;;;;;;;;;;;;;;;5030950;28;20066;-66
2021/03/25 09:21:29;;;;;;;;;;;;;;;;;;5029516;28;20278;-66
2021/03/25 09:23:55;;;;;;;;;;;;;;;;;;5031216;28;19932;-66
2021/03/25 09:26:22;;;;;;;;;;;;;;;;;;5036594;28;19929;-66
2021/03/25 09:28:49;;;;;;;;;;;;;;;;;;5034821;28;19931;-67
2021/03/25 09:31:15;;;;;;;;;;;;;;;;;;5025681;28;19945;-68
2021/03/25 09:33:45;;;;;;;;;;;;;;;;;;5033659;28;20011;-66
2021/03/25 09:36:11;;;;;;;;;;;;;;;;;;5030380;28;19925;-67
2021/03/25 09:38:40;;;;;;;;;;;;;;;;;;5025940;28;19925;-65
2021/03/25 09:41:07;;;;;;;;;;;;;;;;;;5036224;28;19925;-67
2021/03/25 09:43:33;;;;;;;;;;;;;;;;;;5034120;28;20404;-66
2021/03/25 09:46:00;;;;;;;;;;;;;;;;;;5035504;28;20212;-66
2021/03/25 09:48:26;;;;;;;;;;;;;;;;;;5030052;28;19929;-66
2021/03/25 09:50:53;;;;;;;;;;;;;;;;;;5040790;28;20385;-67
2021/03/25 09:53:20;;;;;;;;;;;;;;;;;;5031805;28;19925;-68
2021/03/25 09:55:46;;;;;;;;;;;;;;;;;;5031750;28;20302;-66
2021/03/25 09:58:13;;;;;;;;;;;;;;;;;;5035566;28;19928;-67
2021/03/25 10:00:39;;;;;;;;;;;;;;;;;;5028293;28;19931;-66
2021/03/25 10:03:06;;;;;;;;;;;;;;;;;;5039246;28;19925;-65
2021/03/25 10:05:33;;;;;;;;;;;;;;;;;;5032853;22;19934;-63
2021/03/25 10:08:00;;;;;;;;;;;;;;;;;;5011833;28;19932;-62
2021/03/25 10:10:26;;;;;;;;;;;;;;;;;;5007113;28;20020;-63
2021/03/25 10:12:53;;;;;;;;;;;;;;;;;;5012442;28;19984;-64
2021/03/25 10:15:19;;;;;;;;;;;;;;;;;;5005143;28;19926;-65
2021/03/25 10:17:46;;;;;;;;;;;;;;;;;;5010479;28;19936;-66
2021/03/25 10:20:12;;;;;;;;;;;;;;;;;;5007290;28;20336;-64
2021/03/25 10:22:39;;;;;;;;;;;;;;;;;;5011233;28;19926;-65
2021/03/25 10:25:05;;;;;;;;;;;;;;;;;;5011830;28;19934;-65
2021/03/25 10:27:32;;;;;;;;;;;;;;;;;;5010081;28;20443;-64
2021/03/25 10:29:58;;;;;;;;;;;;;;;;;;5007768;28;19929;-64
2021/03/25 10:32:25;;;;;;;;;;;;;;;;;;5009568;28;19926;-65
2021/03/25 10:34:51;;;;;;;;;;;;;;;;;;5011832;28;19925;-66
2021/03/25 10:37:18;;;;;;;;;;;;;;;;;;5009901;28;19933;-67
2021/03/25 10:39:44;;;;;;;;;;;;;;;;;;5006620;28;19925;-63
2021/03/25 10:42:11;;;;;;;;;;;;;;;;;;5007753;28;20035;-64
2021/03/25 10:44:37;;;;;;;;;;;;;;;;;;5002647;28;19926;-67
2021/03/25 10:47:04;;;;;;;;;;;;;;;;;;5008573;28;19953;-66
2021/03/25 10:49:30;;;;;;;;;;;;;;;;;;5004355;28;20413;-68
2021/03/25 10:51:57;;;;;;;;;;;;;;;;;;5009844;28;20019;-65
2021/03/25 10:54:23;;;;;;;;;;;;;;;;;;5007391;28;19933;-67
2021/03/25 10:56:50;;;;;;;;;;;;;;;;;;4999662;28;20416;-68
2021/03/25 10:59:18;;;;;;;;;;;;;;;;;;4999179;28;19983;-67
2021/03/25 11:01:44;;;;;;;;;;;;;;;;;;4999660;28;20378;-67
2021/03/25 11:04:11;;;;;;;;;;;;;;;;;;5007204;28;19931;-68
2021/03/25 11:06:37;;;;;;;;;;;;;;;;;;5006459;28;19925;-67
2021/03/25 11:09:04;;;;;;;;;;;;;;;;;;5005574;28;20398;-65
2021/03/25 11:11:32;;;;;;;;;;;;;;;;;;5009736;28;19930;-67
2021/03/25 11:13:58;;;;;;;;;;;;;;;;;;5008475;28;20415;-68
2021/03/25 11:16:25;;;;;;;;;;;;;;;;;;5010759;28;19976;-67
2021/03/25 11:18:51;;;;;;;;;;;;;;;;;;5008053;28;19932;-67
2021/03/25 11:21:18;;;;;;;;;;;;;;;;;;5008013;28;20016;-66
2021/03/25 11:23:44;;;;;;;;;;;;;;;;;;5009409;28;20301;-67
2021/03/25 11:26:12;;;;;;;;;;;;;;;;;;5010646;28;19926;-66
2021/03/25 11:28:39;;;;;;;;;;;;;;;;;;5007972;28;20366;-66
2021/03/25 11:31:05;;;;;;;;;;;;;;;;;;5009652;28;20024;-66
2021/03/25 11:33:32;;;;;;;;;;;;;;;;;;5010509;28;19926;-68
2021/03/25 11:35:58;;;;;;;;;;;;;;;;;;5008328;28;19972;-65
2021/03/25 11:38:25;;;;;;;;;;;;;;;;;;5003420;28;19934;-66
2021/03/25 11:40:51;;;;;;;;;;;;;;;;;;5010091;28;19929;-67
2021/03/25 11:43:18;;;;;;;;;;;;;;;;;;5009315;28;20020;-67
2021/03/25 11:45:45;;;;;;;;;;;;;;;;;;5008273;28;19925;-67
2021/03/25 11:48:11;;;;;;;;;;;;;;;;;;5007458;28;19965;-68
2021/03/25 11:50:38;;;;;;;;;;;;;;;;;;4996011;28;19983;-66
2021/03/25 11:53:04;;;;;;;;;;;;;;;;;;5010556;28;19932;-67
2021/03/25 11:55:32;;;;;;;;;;;;;;;;;;5003635;28;19933;-67
2021/03/25 11:57:59;;;;;;;;;;;;;;;;;;5010787;28;19987;-67
2021/03/25 12:00:25;;;;;;;;;;;;;;;;;;5003728;28;19926;-67
2021/03/25 12:02:53;;;;;;;;;;;;;;;;;;5007351;28;19925;-67
2021/03/25 12:05:19;;;;;;;;;;;;;;;;;;5010584;28;20340;-68
2021/03/25 12:07:46;;;;;;;;;;;;;;;;;;5009726;28;19937;-66
2021/03/25 12:10:13;;;;;;;;;;;;;;;;;;5003395;28;19991;-66
2021/03/25 12:12:39;;;;;;;;;;;;;;;;;;5010206;28;19932;-68
2021/03/25 12:15:06;;;;;;;;;;;;;;;;;;5003571;28;20032;-66
2021/03/25 12:17:32;;;;;;;;;;;;;;;;;;5008675;28;19933;-66
2021/03/25 12:19:59;;;;;;;;;;;;;;;;;;5005200;28;19925;-66
2021/03/25 12:22:25;;;;;;;;;;;;;;;;;;5008680;28;20012;-67
2021/03/25 12:24:52;;;;;;;;;;;;;;;;;;5007765;28;20192;-68
2021/03/25 12:27:19;;;;;;;;;;;;;;;;;;5006594;28;20370;-68
2021/03/25 12:29:45;;;;;;;;;;;;;;;;;;5001664;28;19929;-67
2021/03/25 12:32:12;;;;;;;;;;;;;;;;;;5004473;28;19934;-67
2021/03/25 12:34:38;;;;;;;;;;;;;;;;;;5006732;28;19976;-67
2021/03/25 12:37:05;;;;;;;;;;;;;;;;;;5005263;28;20467;-67
2021/03/25 12:39:31;;;;;;;;;;;;;;;;;;5003029;28;20029;-67
2021/03/25 12:41:58;;;;;;;;;;;;;;;;;;5005516;28;19925;-67
2021/03/25 12:44:25;;;;;;;;;;;;;;;;;;5004183;28;19930;-66
2021/03/25 12:46:51;;;;;;;;;;;;;;;;;;5001818;28;20613;-67
2021/03/25 12:49:18;;;;;;;;;;;;;;;;;;5000160;28;19925;-66
2021/03/25 12:51:44;;;;;;;;;;;;;;;;;;5004125;28;19930;-66
2021/03/25 12:54:11;;;;;;;;;;;;;;;;;;5002966;28;19925;-67
2021/03/25 12:56:39;;;;;;;;;;;;;;;;;;5004231;28;20025;-67
2021/03/25 12:59:07;;;;;;;;;;;;;;;;;;5005023;28;19925;-65
2021/03/25 13:01:34;;;;;;;;;;;;;;;;;;5004373;28;19932;-67
2021/03/25 13:04:00;;;;;;;;;;;;;;;;;;5003753;28;19995;-65
2021/03/25 13:06:27;;;;;;;;;;;;;;;;;;5001197;28;20020;-68
2021/03/25 13:08:53;;;;;;;;;;;;;;;;;;4997864;28;19934;-68
2021/03/25 13:11:20;;;;;;;;;;;;;;;;;;5001232;28;20020;-67
2021/03/25 13:13:47;;;;;;;;;;;;;;;;;;5001885;28;20243;-67
2021/03/25 13:16:14;;;;;;;;;;;;;;;;;;5006283;28;19925;-67
2021/03/25 13:18:40;;;;;;;;;;;;;;;;;;5005161;28;19936;-68
2021/03/25 13:21:07;;;;;;;;;;;;;;;;;;5001570;28;20447;-66
2021/03/25 13:23:33;;;;;;;;;;;;;;;;;;5005868;28;20047;-67
2021/03/25 13:26:01;;;;;;;;;;;;;;;;;;5004966;28;19925;-67
2021/03/25 13:28:28;;;;;;;;;;;;;;;;;;4999039;28;19980;-66
2021/03/25 13:30:54;;;;;;;;;;;;;;;;;;5002232;28;20403;-66
2021/03/25 13:33:21;;;;;;;;;;;;;;;;;;5005725;28;20001;-67
2021/03/25 13:35:47;;;;;;;;;;;;;;;;;;5002403;28;19925;-68
2021/03/25 13:38:14;;;;;;;;;;;;;;;;;;5000729;28;19969;-68
2021/03/25 13:40:40;;;;;;;;;;;;;;;;;;5003730;28;20425;-66
2021/03/25 13:43:07;;;;;;;;;;;;;;;;;;5002992;28;19926;-66
2021/03/25 13:45:33;;;;;;;;;;;;;;;;;;5004268;28;20409;-66
2021/03/25 13:48:00;;;;;;;;;;;;;;;;;;5007666;28;19979;-67
2021/03/25 13:50:26;;;;;;;;;;;;;;;;;;5000966;28;20040;-66
2021/03/25 13:52:53;;;;;;;;;;;;;;;;;;5002853;28;19925;-67
2021/03/25 13:55:19;;;;;;;;;;;;;;;;;;5003512;28;20320;-67
2021/03/25 13:57:46;;;;;;;;;;;;;;;;;;5001944;28;20316;-65
2021/03/25 14:00:12;;;;;;;;;;;;;;;;;;5000506;28;20064;-66
2021/03/25 14:02:39;;;;;;;;;;;;;;;;;;5003500;28;19925;-66
2021/03/25 14:05:05;;;;;;;;;;;;;;;;;;5004598;28;20465;-68
2021/03/25 14:07:32;;;;;;;;;;;;;;;;;;5004655;28;19926;-68
2021/03/25 14:09:58;;;;;;;;;;;;;;;;;;5000729;28;19961;-67
2021/03/25 14:12:25;;;;;;;;;;;;;;;;;;5004616;28;19976;-68
2021/03/25 14:14:51;;;;;;;;;;;;;;;;;;5006729;28;19988;-68
2021/03/25 14:17:18;;;;;;;;;;;;;;;;;;5007782;28;19976;-68
2021/03/25 14:19:44;;;;;;;;;;;;;;;;;;5004383;28;20036;-68
2021/03/25 14:22:11;;;;;;;;;;;;;;;;;;5006660;28;19964;-68
2021/03/25 14:24:39;;;;;;;;;;;;;;;;;;5007749;28;20365;-68
2021/03/25 14:27:05;;;;;;;;;;;;;;;;;;5007533;28;19972;-68
2021/03/25 14:29:32;;;;;;;;;;;;;;;;;;5002162;28;20016;-68
2021/03/25 14:31:58;;;;;;;;;;;;;;;;;;5006195;28;19926;-68
2021/03/25 14:34:25;;;;;;;;;;;;;;;;;;5008272;28;19940;-68
2021/03/25 14:36:51;;;;;;;;;;;;;;;;;;5006010;28;19936;-68
2021/03/25 14:39:18;;;;;;;;;;;;;;;;;;5005852;28;20361;-68
2021/03/25 14:41:44;;;;;;;;;;;;;;;;;;5006146;28;19925;-68
2021/03/25 14:44:11;;;;;;;;;;;;;;;;;;5004594;28;20048;-68
2021/03/25 14:46:37;;;;;;;;;;;;;;;;;;5003708;28;19925;-68
2021/03/25 14:49:04;;;;;;;;;;;;;;;;;;5005535;28;19931;-66
2021/03/25 14:51:30;;;;;;;;;;;;;;;;;;5008423;28;19985;-67
2021/03/25 14:53:57;;;;;;;;;;;;;;;;;;5006857;28;20013;-67
2021/03/25 14:56:23;;;;;;;;;;;;;;;;;;5006173;28;19926;-69
2021/03/25 14:58:50;;;;;;;;;;;;;;;;;;5008661;28;20309;-68
2021/03/25 15:01:16;;;;;;;;;;;;;;;;;;5000750;28;19975;-66
2021/03/25 15:03:43;;;;;;;;;;;;;;;;;;5012321;28;19926;-67
2021/03/25 15:06:09;;;;;;;;;;;;;;;;;;5008338;28;20425;-66
2021/03/25 15:08:36;;;;;;;;;;;;;;;;;;5005033;28;20024;-66
2021/03/25 15:11:03;;;;;;;;;;;;;;;;;;5005237;28;19952;-66
2021/03/25 15:13:29;;;;;;;;;;;;;;;;;;5007857;28;19932;-67
2021/03/25 15:15:56;;;;;;;;;;;;;;;;;;5010084;28;20454;-66
2021/03/25 15:18:22;;;;;;;;;;;;;;;;;;5006151;28;20008;-67
2021/03/25 15:20:51;;;;;;;;;;;;;;;;;;5007807;28;19933;-66
2021/03/25 15:23:17;;;;;;;;;;;;;;;;;;5007413;28;19957;-69
2021/03/25 15:25:44;;;;;;;;;;;;;;;;;;5006799;28;20020;-69
2021/03/25 15:28:10;;;;;;;;;;;;;;;;;;5002324;28;19932;-67
2021/03/25 15:30:37;;;;;;;;;;;;;;;;;;5002694;28;20400;-68
2021/03/25 15:33:04;;;;;;;;;;;;;;;;;;5005251;28;20034;-67
2021/03/25 15:35:30;;;;;;;;;;;;;;;;;;5004481;28;19933;-67
2021/03/25 15:37:57;;;;;;;;;;;;;;;;;;5006257;28;20349;-66
2021/03/25 15:40:23;;;;;;;;;;;;;;;;;;5008481;28;19936;-67
2021/03/25 15:42:50;;;;;;;;;;;;;;;;;;5003136;28;20736;-67
2021/03/25 15:45:16;;;;;;;;;;;;;;;;;;5007871;28;19964;-67
2021/03/25 15:47:43;;;;;;;;;;;;;;;;;;5003624;28;19953;-67
2021/03/25 15:50:09;;;;;;;;;;;;;;;;;;4997693;28;19973;-66
2021/03/25 15:52:36;;;;;;;;;;;;;;;;;;5003369;28;19944;-66
2021/03/25 15:55:02;;;;;;;;;;;;;;;;;;5009127;28;19929;-67
2021/03/25 15:57:29;;;;;;;;;;;;;;;;;;5006054;28;19932;-68
2021/03/25 15:59:55;;;;;;;;;;;;;;;;;;5010012;28;20310;-68
2021/03/25 16:02:22;;;;;;;;;;;;;;;;;;5008580;28;20033;-67
2021/03/25 16:04:48;;;;;;;;;;;;;;;;;;5032766;22;19940;-64
2021/03/25 16:07:15;;;;;;;;;;;;;;;;;;5035039;28;20304;-65
2021/03/25 16:09:41;;;;;;;;;;;;;;;;;;5024767;28;20285;-65
2021/03/25 16:12:08;;;;;;;;;;;;;;;;;;5027152;28;19930;-67
2021/03/25 16:14:34;;;;;;;;;;;;;;;;;;5022801;28;20149;-65
2021/03/25 16:17:01;;;;;;;;;;;;;;;;;;5023428;28;20024;-67
2021/03/25 16:19:28;;;;;;;;;;;;;;;;;;5010707;28;20439;-64
2021/03/25 16:21:54;;;;;;;;;;;;;;;;;;5008832;28;19926;-64
2021/03/25 16:24:21;;;;;;;;;;;;;;;;;;5007259;28;19944;-66
2021/03/25 16:26:48;;;;;;;;;;;;;;;;;;5017019;28;20321;-64
2021/03/25 16:29:14;;;;;;;;;;;;;;;;;;5007450;28;19926;-64
2021/03/25 16:31:41;;;;;;;;;;;;;;;;;;5008817;28;20021;-64
2021/03/25 16:34:07;;;;;;;;;;;;;;;;;;5009938;28;20024;-65
2021/03/25 16:36:34;;;;;;;;;;;;;;;;;;5005900;28;19929;-66
2021/03/25 16:39:01;;;;;;;;;;;;;;;;;;5006538;28;20305;-66
2021/03/25 16:41:27;;;;;;;;;;;;;;;;;;5000722;28;19933;-65